createdAt,value
2023-01-03T00:01:27.658Z,32.30
2023-01-03T00:03:56.699Z,32.03
2023-01-03T00:06:27.258Z,34.92
2023-01-03T00:08:56.862Z,30.37
2023-01-03T00:11:48.062Z,34.67
2023-01-03T00:14:19.837Z,31.38
2023-01-03T00:16:50.534Z,29.42
2023-01-03T00:19:18.226Z,32.17
2023-01-03T00:21:46.126Z,32.93
2023-01-03T00:24:14.340Z,29.70
2023-01-03T00:26:44.317Z,37.33
2023-01-03T00:29:14.399Z,35.13
2023-01-03T00:31:45.350Z,34.75
2023-01-03T00:34:12.709Z,43.23
2023-01-03T00:36:41.116Z,37.00
2023-01-03T00:39:09.733Z,38.38
2023-01-03T00:41:37.153Z,36.83
2023-01-03T00:44:04.820Z,39.75
2023-01-03T00:46:32.694Z,32.80
2023-01-03T00:49:00.388Z,36.05
2023-01-03T00:51:31.032Z,31.33
2023-01-03T00:54:00.127Z,29.52
2023-01-03T00:56:32.895Z,29.02
2023-01-03T00:59:00.957Z,28.47
2023-01-03T01:01:46.216Z,34.70
2023-01-03T01:04:19.148Z,29.40
2023-01-03T01:06:50.327Z,30.88
2023-01-03T01:09:26.941Z,39.45
2023-01-03T01:11:57.691Z,32.50
2023-01-03T01:14:28.521Z,29.35
2023-01-03T01:16:59.441Z,31.13
2023-01-03T01:19:30.871Z,27.02
2023-01-03T01:21:58.757Z,25.95
2023-01-03T01:24:26.940Z,24.30
2023-01-03T01:26:54.715Z,28.90
2023-01-03T01:29:24.172Z,26.25
2023-01-03T01:31:53.195Z,25.38
2023-01-03T01:34:21.204Z,27.88
2023-01-03T01:36:48.861Z,23.77
2023-01-03T01:39:25.834Z,30.70
2023-01-03T01:42:21.195Z,25.63
2023-01-03T01:44:57.831Z,22.58
2023-01-03T01:47:40.813Z,23.67
2023-01-03T01:50:42.496Z,19.83
2023-01-03T01:53:20.974Z,23.20
2023-01-03T01:56:00.946Z,23.83
2023-01-03T01:58:36.071Z,25.60
2023-01-03T02:01:06.034Z,23.58
2023-01-03T02:03:35.979Z,24.43
2023-01-03T02:06:07.359Z,28.83
2023-01-03T02:08:35.075Z,25.85
2023-01-03T02:11:14.057Z,32.53
2023-01-03T02:13:44.649Z,30.48
2023-01-03T02:16:17.489Z,29.27
2023-01-03T02:18:53.747Z,27.65
2023-01-03T02:21:54.911Z,28.13
2023-01-03T02:24:37.568Z,28.70
2023-01-03T02:27:14.015Z,28.08
2023-01-03T02:30:02.017Z,29.93
2023-01-03T02:32:40.722Z,34.00
2023-01-03T02:35:36.538Z,27.23
2023-01-03T02:38:30.447Z,30.25
2023-01-03T02:41:14.588Z,27.25
2023-01-03T02:44:07.046Z,26.90
2023-01-03T02:46:45.127Z,24.58
2023-01-03T02:49:37.868Z,25.75
2023-01-03T02:52:11.057Z,24.15
2023-01-03T02:54:47.631Z,25.75
2023-01-03T02:57:19.135Z,27.77
2023-01-03T02:59:58.080Z,24.63
2023-01-03T03:02:29.862Z,24.90
2023-01-03T03:05:01.513Z,21.65
2023-01-03T03:07:35.654Z,25.02
2023-01-03T03:10:23.557Z,25.77
2023-01-03T03:13:14.547Z,23.55
2023-01-03T03:16:20.090Z,24.65
2023-01-03T03:18:58.747Z,19.73
2023-01-03T03:21:51.871Z,23.30
2023-01-03T03:24:48.205Z,20.77
2023-01-03T03:27:38.460Z,24.13
2023-01-03T03:30:12.613Z,21.92
2023-01-03T03:32:44.506Z,25.33
2023-01-03T03:35:15.849Z,27.13
2023-01-03T03:37:48.618Z,25.80
2023-01-03T03:40:34.936Z,21.98
2023-01-03T03:43:37.899Z,24.23
2023-01-03T03:46:24.430Z,20.85
2023-01-03T03:49:26.578Z,19.45
2023-01-03T03:52:00.231Z,15.37
2023-01-03T03:54:29.391Z,15.63
2023-01-03T03:57:08.185Z,16.48
2023-01-03T03:59:37.718Z,14.48
2023-01-03T04:02:09.632Z,16.65
2023-01-03T04:04:40.808Z,14.73
2023-01-03T04:07:08.383Z,15.85
2023-01-03T04:09:37.966Z,14.75
2023-01-03T04:12:07.520Z,17.55
2023-01-03T04:14:37.190Z,16.17
2023-01-03T04:17:05.770Z,14.47
2023-01-03T04:19:34.225Z,15.65
2023-01-03T04:22:01.583Z,17.08
2023-01-03T04:24:29.023Z,18.17
2023-01-03T04:26:56.514Z,12.77
2023-01-03T04:29:23.896Z,14.80
2023-01-03T04:31:53.807Z,15.13
2023-01-03T04:34:21.730Z,13.63
2023-01-03T04:36:49.161Z,13.07
2023-01-03T04:39:17.980Z,13.32
2023-01-03T04:41:48.432Z,13.17
2023-01-03T04:44:15.924Z,14.63
2023-01-03T04:46:52.290Z,16.80
2023-01-03T04:49:22.431Z,16.30
2023-01-03T04:51:49.771Z,13.32
2023-01-03T04:54:17.604Z,15.83
2023-01-03T04:56:48.187Z,15.93
2023-01-03T04:59:17.411Z,16.50
2023-01-03T05:01:52.625Z,17.00
2023-01-03T05:04:20.343Z,19.33
2023-01-03T05:06:51.533Z,17.50
2023-01-03T05:09:23.340Z,16.58
2023-01-03T05:11:50.902Z,19.05
2023-01-03T05:14:18.436Z,15.98
2023-01-03T05:16:45.852Z,15.63
2023-01-03T05:19:13.808Z,15.63
2023-01-03T05:22:00.875Z,16.98
2023-01-03T05:24:46.829Z,13.63
2023-01-03T05:27:16.878Z,15.98
2023-01-03T05:29:44.672Z,21.45
2023-01-03T05:32:16.062Z,36.97
2023-01-03T05:34:44.858Z,51.08
2023-01-03T05:37:14.902Z,70.55
2023-01-03T05:39:42.341Z,73.65
2023-01-03T05:42:09.985Z,49.90
2023-01-03T05:44:37.430Z,33.00
2023-01-03T05:47:05.934Z,25.63
2023-01-03T05:49:37.148Z,20.63
2023-01-03T05:52:05.962Z,16.80
2023-01-03T05:54:35.844Z,17.23
2023-01-03T05:57:09.495Z,18.23
2023-01-03T05:59:42.826Z,15.43
2023-01-03T06:02:12.691Z,15.50
2023-01-03T06:04:42.206Z,16.77
2023-01-03T06:07:12.232Z,19.52
2023-01-03T06:09:39.807Z,16.40
2023-01-03T06:12:07.825Z,19.45
2023-01-03T06:14:35.408Z,17.52
2023-01-03T06:17:22.340Z,17.10
2023-01-03T06:19:53.596Z,23.27
2023-01-03T06:22:21.904Z,20.83
2023-01-03T06:24:49.508Z,20.42
2023-01-03T06:27:18.527Z,19.13
2023-01-03T06:29:48.514Z,16.38
2023-01-03T06:32:19.095Z,18.75
2023-01-03T06:34:48.582Z,16.13
2023-01-03T06:37:16.023Z,15.23
2023-01-03T06:39:46.067Z,14.63
2023-01-03T06:42:32.106Z,17.48
2023-01-03T06:45:18.365Z,17.02
2023-01-03T06:48:04.179Z,17.63
2023-01-03T06:50:59.912Z,13.98
2023-01-03T06:53:33.525Z,14.75
2023-01-03T06:56:01.300Z,13.68
2023-01-03T06:58:35.520Z,15.23
2023-01-03T07:01:05.425Z,14.83
2023-01-03T07:03:33.686Z,14.60
2023-01-03T07:06:01.188Z,16.50
2023-01-03T07:08:28.703Z,16.08
2023-01-03T07:10:59.599Z,13.75
2023-01-03T07:13:45.829Z,19.30
2023-01-03T07:16:16.149Z,16.65
2023-01-03T07:18:54.910Z,16.10
2023-01-03T07:21:29.097Z,15.38
2023-01-03T07:24:39.519Z,14.43
2023-01-03T07:27:10.249Z,13.40
2023-01-03T07:29:38.233Z,16.95
2023-01-03T07:32:05.819Z,16.55
2023-01-03T07:34:35.097Z,15.65
2023-01-03T07:37:05.141Z,15.27
2023-01-03T07:39:48.284Z,15.17
2023-01-03T07:42:37.221Z,18.27
2023-01-03T07:45:05.408Z,17.42
2023-01-03T07:47:36.798Z,17.33
2023-01-03T07:50:04.827Z,22.23
2023-01-03T07:52:32.364Z,18.83
2023-01-03T07:54:59.913Z,16.13
2023-01-03T08:01:40.860Z,17.70
2023-01-03T08:09:02.620Z,15.03
2023-01-03T08:15:11.351Z,17.48
2023-01-03T08:17:39.183Z,18.58
2023-01-03T08:20:07.497Z,19.23
2023-01-03T08:22:34.937Z,17.10
2023-01-03T08:25:05.747Z,17.15
2023-01-03T08:27:34.602Z,18.58
2023-01-03T08:30:02.353Z,16.73
2023-01-03T08:32:31.431Z,20.75
2023-01-03T08:35:01.335Z,17.03
2023-01-03T08:37:29.143Z,19.60
2023-01-03T08:40:05.891Z,19.38
2023-01-03T08:42:34.313Z,20.45
2023-01-03T08:45:09.520Z,19.88
2023-01-03T08:47:37.506Z,16.20
2023-01-03T08:50:05.853Z,15.18
2023-01-03T08:52:35.511Z,17.23
2023-01-03T08:55:03.867Z,20.08
2023-01-03T08:57:32.018Z,17.80
2023-01-03T08:59:59.732Z,18.87
2023-01-03T09:02:27.910Z,18.60
2023-01-03T09:04:55.835Z,16.65
2023-01-03T09:07:23.560Z,18.10
2023-01-03T09:09:51.333Z,21.20
2023-01-03T09:12:24.612Z,18.40
2023-01-03T09:14:57.203Z,22.23
2023-01-03T09:17:25.222Z,20.40
2023-01-03T09:19:52.964Z,24.13
2023-01-03T09:22:20.565Z,25.90
2023-01-03T09:24:48.089Z,24.23
2023-01-03T09:27:17.183Z,25.17
2023-01-03T09:30:06.682Z,21.38
2023-01-03T09:32:40.132Z,22.73
2023-01-03T09:35:17.573Z,23.38
2023-01-03T09:37:57.362Z,26.00
2023-01-03T09:40:37.556Z,21.80
2023-01-03T09:43:39.423Z,25.38
2023-01-03T09:46:36.072Z,22.38
2023-01-03T09:49:28.337Z,28.40
2023-01-03T09:52:40.484Z,22.97
2023-01-03T09:55:51.310Z,28.13
2023-01-03T09:58:40.418Z,25.42
2023-01-03T10:01:48.789Z,24.52
2023-01-03T10:04:41.979Z,25.15
2023-01-03T10:07:53.434Z,24.87
2023-01-03T10:10:37.482Z,26.10
2023-01-03T10:13:25.393Z,25.30
2023-01-03T10:16:24.604Z,23.73
2023-01-03T10:19:25.355Z,27.92
2023-01-03T10:22:04.521Z,31.33
2023-01-03T10:24:41.725Z,29.95
2023-01-03T10:27:25.581Z,29.48
2023-01-03T10:30:01.768Z,28.48
2023-01-03T10:32:47.095Z,26.85
2023-01-03T10:35:32.191Z,28.40
2023-01-03T10:38:00.762Z,30.67
2023-01-03T10:40:46.806Z,26.05
2023-01-03T10:43:33.143Z,30.17
2023-01-03T10:46:13.653Z,28.13
2023-01-03T10:49:25.208Z,26.13
2023-01-03T10:51:43.146Z,27.00
2023-01-03T10:54:27.024Z,25.38
2023-01-03T10:56:55.225Z,23.20
2023-01-03T10:59:28.519Z,28.65
2023-01-03T11:01:57.527Z,24.10
2023-01-03T11:04:27.378Z,24.02
2023-01-03T11:07:09.488Z,27.08
2023-01-03T11:09:58.671Z,29.02
2023-01-03T11:12:40.194Z,28.92
2023-01-03T11:15:38.811Z,27.23
2023-01-03T11:18:18.143Z,25.10
2023-01-03T11:21:07.615Z,19.50
2023-01-03T11:23:57.351Z,25.17
2023-01-03T11:26:33.847Z,22.48
2023-01-03T11:29:40.463Z,23.77
2023-01-03T11:32:36.787Z,27.45
2023-01-03T11:35:36.677Z,25.20
2023-01-03T11:38:12.607Z,26.90
2023-01-03T11:40:53.100Z,30.35
2023-01-03T11:43:38.796Z,26.97
2023-01-03T11:46:27.606Z,29.25
2023-01-03T11:49:10.192Z,27.98
2023-01-03T11:52:20.215Z,26.88
2023-01-03T11:55:12.622Z,25.48
2023-01-03T11:57:59.470Z,25.63
2023-01-03T12:00:44.195Z,26.27
2023-01-03T12:03:36.151Z,28.77
2023-01-03T12:06:08.661Z,22.40
2023-01-03T12:08:53.680Z,21.20
2023-01-03T12:12:02.134Z,29.30
2023-01-03T12:14:46.995Z,25.55
2023-01-03T12:17:23.757Z,28.95
2023-01-03T12:20:12.843Z,23.80
2023-01-03T12:23:02.302Z,24.40
2023-01-03T12:25:36.102Z,23.77
2023-01-03T12:28:06.567Z,24.83
2023-01-03T12:30:38.756Z,24.52
2023-01-03T12:33:39.304Z,25.60
2023-01-03T12:36:23.201Z,26.77
2023-01-03T12:39:27.526Z,25.67
2023-01-03T12:42:07.532Z,27.08
2023-01-03T12:44:42.550Z,26.52
2023-01-03T12:47:21.240Z,23.75
2023-01-03T12:49:53.621Z,23.52
2023-01-03T12:52:25.209Z,30.27
2023-01-03T12:55:26.668Z,23.13
2023-01-03T12:58:48.001Z,23.77
2023-01-03T13:01:25.511Z,21.88
2023-01-03T13:03:59.283Z,24.83
2023-01-03T13:06:33.774Z,23.47
2023-01-03T13:09:20.107Z,23.08
2023-01-03T13:11:52.495Z,24.50
2023-01-03T13:14:26.401Z,23.02
2023-01-03T13:17:07.300Z,22.77
2023-01-03T13:19:39.438Z,26.43
2023-01-03T13:22:46.103Z,28.75
2023-01-03T13:25:37.368Z,23.92
2023-01-03T13:28:25.146Z,22.92
2023-01-03T13:31:17.649Z,23.80
2023-01-03T13:34:12.762Z,26.80
2023-01-03T13:37:08.351Z,26.17
2023-01-03T13:39:59.140Z,26.70
2023-01-03T13:42:35.552Z,30.23
2023-01-03T13:45:12.099Z,25.25
2023-01-03T13:47:44.384Z,26.80
2023-01-03T13:50:26.636Z,25.92
2023-01-03T13:53:05.823Z,29.88
2023-01-03T13:56:03.898Z,31.83
2023-01-03T13:58:40.690Z,27.30
2023-01-03T14:01:43.562Z,32.07
2023-01-03T14:04:20.402Z,32.65
2023-01-03T14:07:14.034Z,29.58
2023-01-03T14:10:00.452Z,28.55
2023-01-03T14:13:00.563Z,33.28
2023-01-03T14:15:32.381Z,38.97
2023-01-03T14:18:15.286Z,42.03
2023-01-03T14:20:51.181Z,38.90
2023-01-03T14:26:19.508Z,37.50
2023-01-03T14:28:52.673Z,37.80
2023-01-03T14:31:27.487Z,42.45
2023-01-03T14:34:08.331Z,35.58
2023-01-03T14:36:46.494Z,41.95
2023-01-03T14:39:23.254Z,42.67
2023-01-03T14:41:54.147Z,48.53
2023-01-03T14:44:21.726Z,44.13
2023-01-03T14:46:56.315Z,38.75
2023-01-03T14:49:47.904Z,42.72
2023-01-03T14:52:26.079Z,41.80
2023-01-03T14:55:03.493Z,35.50
2023-01-03T14:57:39.452Z,38.53
2023-01-03T15:00:12.404Z,42.50
2023-01-03T15:02:42.688Z,38.15
2023-01-03T15:05:34.306Z,40.38
2023-01-03T15:08:32.802Z,40.60
2023-01-03T15:11:08.602Z,43.40
2023-01-03T15:13:43.422Z,38.05
2023-01-03T15:16:35.069Z,41.05
2023-01-03T15:19:23.936Z,48.78
2023-01-03T15:22:08.477Z,49.53
2023-01-03T15:24:45.007Z,44.78
2023-01-03T15:27:35.345Z,39.03
2023-01-03T15:30:15.770Z,44.10
2023-01-03T15:32:57.799Z,37.70
2023-01-03T15:35:31.262Z,36.57
2023-01-03T15:38:01.693Z,37.42
2023-01-03T15:40:33.839Z,34.47
2023-01-03T15:43:22.303Z,36.60
2023-01-03T15:46:04.574Z,36.08
2023-01-03T15:48:38.861Z,35.90
2023-01-03T15:51:06.862Z,36.03
2023-01-03T15:53:41.234Z,37.35
2023-01-03T15:56:49.112Z,32.53
2023-01-03T15:59:24.914Z,34.05
2023-01-03T16:01:53.406Z,38.13
2023-01-03T16:04:24.275Z,35.08
2023-01-03T16:06:53.722Z,38.50
2023-01-03T16:09:21.434Z,32.00
2023-01-03T16:11:56.397Z,33.83
2023-01-03T16:14:33.570Z,28.80
2023-01-03T16:17:01.961Z,22.25
2023-01-03T16:19:30.242Z,27.63
2023-01-03T16:24:53.165Z,36.38
2023-01-03T16:27:24.190Z,32.30
2023-01-03T16:29:52.679Z,52.30
2023-01-03T16:32:29.066Z,53.15
2023-01-03T16:35:03.090Z,53.13
2023-01-03T16:37:33.898Z,51.25
2023-01-03T16:40:01.606Z,45.07
2023-01-03T16:42:29.427Z,51.58
2023-01-03T16:44:58.182Z,46.55
2023-01-03T16:47:33.792Z,37.70
2023-01-03T16:50:27.582Z,38.17
2023-01-03T16:52:56.650Z,45.00
2023-01-03T16:55:32.582Z,43.60
2023-01-03T16:58:02.272Z,43.05
2023-01-03T17:00:32.775Z,45.03
2023-01-03T17:03:03.130Z,46.42
2023-01-03T17:05:36.577Z,38.50
2023-01-03T17:08:20.566Z,47.88
2023-01-03T17:10:53.066Z,41.45
2023-01-03T17:13:31.399Z,50.67
2023-01-03T17:16:01.297Z,40.50
2023-01-03T17:18:37.527Z,51.80
2023-01-03T17:21:19.567Z,48.95
2023-01-03T17:23:49.110Z,42.35
2023-01-03T17:26:20.697Z,42.03
2023-01-03T17:28:53.170Z,41.70
2023-01-03T17:31:23.699Z,44.17
2023-01-03T17:33:52.027Z,45.10
2023-01-03T17:36:39.286Z,44.65
2023-01-03T17:39:09.706Z,45.30
2023-01-03T17:41:56.777Z,49.80
2023-01-03T17:44:26.813Z,49.10
2023-01-03T17:47:13.959Z,46.83
2023-01-03T17:49:41.737Z,47.40
2023-01-03T17:52:23.202Z,41.75
2023-01-03T17:54:51.800Z,52.10
2023-01-03T17:57:19.332Z,56.30
2023-01-03T17:59:47.164Z,54.15
2023-01-03T18:02:23.694Z,53.45
2023-01-03T18:07:40.562Z,38.72
2023-01-03T18:10:19.081Z,36.93
2023-01-03T18:12:47.848Z,37.28
2023-01-03T18:15:21.415Z,32.70
2023-01-03T18:17:49.497Z,39.08
2023-01-03T18:20:19.299Z,41.60
2023-01-03T18:22:47.905Z,53.83
2023-01-03T18:25:23.888Z,54.03
2023-01-03T18:27:58.466Z,52.10
2023-01-03T18:30:26.322Z,51.42
2023-01-03T18:32:53.813Z,40.95
2023-01-03T18:35:28.659Z,39.53
2023-01-03T18:38:00.199Z,32.33
2023-01-03T18:40:29.342Z,25.63
2023-01-03T18:43:13.094Z,28.38
2023-01-03T18:45:44.994Z,27.73
2023-01-03T18:48:31.550Z,21.73
2023-01-03T18:51:00.088Z,21.48
2023-01-03T18:53:34.641Z,22.90
2023-01-03T18:56:03.428Z,26.02
2023-01-03T18:58:37.336Z,22.88
2023-01-03T19:01:08.640Z,22.13
2023-01-03T19:03:39.725Z,20.10
2023-01-03T19:06:16.752Z,18.05
2023-01-03T19:08:46.535Z,21.23
2023-01-03T19:11:25.614Z,20.08
2023-01-03T19:13:56.086Z,20.40
2023-01-03T19:16:29.326Z,19.33
2023-01-03T19:18:57.783Z,18.27
2023-01-03T19:21:30.815Z,20.23
2023-01-03T19:24:24.968Z,14.25
2023-01-03T19:26:59.056Z,20.80
2023-01-03T19:29:37.279Z,15.23
2023-01-03T19:32:27.129Z,15.95
2023-01-03T19:34:55.084Z,20.95
2023-01-03T19:37:22.929Z,30.13
2023-01-03T19:39:50.932Z,25.87
2023-01-03T19:42:38.966Z,21.98
2023-01-03T19:45:17.805Z,21.80
2023-01-03T19:47:45.289Z,20.17
2023-01-03T19:50:25.505Z,18.88
2023-01-03T19:52:53.773Z,16.90
2023-01-03T19:55:26.218Z,17.95
2023-01-03T19:57:54.625Z,17.98
2023-01-03T20:00:25.670Z,25.85
2023-01-03T20:02:56.898Z,21.98
2023-01-03T20:05:36.277Z,23.10
2023-01-03T20:08:11.572Z,20.85
2023-01-03T20:10:43.208Z,18.98
2023-01-03T20:13:20.209Z,13.55
2023-01-03T20:15:49.942Z,16.77
2023-01-03T20:18:36.983Z,21.07
2023-01-03T20:21:21.951Z,18.60
2023-01-03T20:23:57.599Z,22.27
2023-01-03T20:26:31.171Z,17.48
2023-01-03T20:29:00.243Z,20.27
2023-01-03T20:31:28.346Z,20.13
2023-01-03T20:33:56.027Z,21.60
2023-01-03T20:36:29.255Z,18.67
2023-01-03T20:38:57.324Z,21.10
2023-01-03T20:41:36.868Z,22.13
2023-01-03T20:44:08.366Z,26.67
2023-01-03T20:46:41.119Z,24.20
2023-01-03T20:49:28.372Z,21.33
2023-01-03T20:51:55.913Z,23.60
2023-01-03T20:54:24.368Z,25.00
2023-01-03T20:56:52.214Z,23.77
2023-01-03T20:59:22.194Z,23.88
2023-01-03T21:01:51.145Z,24.42
2023-01-03T21:04:19.127Z,26.88
2023-01-03T21:06:48.246Z,24.25
2023-01-03T21:09:15.678Z,26.57
2023-01-03T21:11:46.891Z,26.50
2023-01-03T21:14:15.130Z,26.27
2023-01-03T21:16:44.794Z,30.45
2023-01-03T21:19:16.294Z,33.75
2023-01-03T21:21:45.770Z,30.57
2023-01-03T21:24:15.484Z,21.20
2023-01-03T21:26:43.320Z,21.40
2023-01-03T21:29:13.952Z,15.85
2023-01-03T21:31:43.995Z,15.75
2023-01-03T21:34:22.296Z,16.17
2023-01-03T21:36:49.871Z,20.85
2023-01-03T21:39:17.393Z,19.45
2023-01-03T21:42:04.209Z,20.08
2023-01-03T21:44:34.837Z,14.38
2023-01-03T21:47:02.347Z,17.63
2023-01-03T21:49:33.234Z,20.13
2023-01-03T21:52:00.871Z,32.67
2023-01-03T21:54:28.334Z,43.50
2023-01-03T21:56:56.021Z,57.33
2023-01-03T21:59:23.693Z,132.83
2023-01-03T22:02:11.364Z,54.40
2023-01-03T22:04:38.935Z,29.13
2023-01-03T22:07:06.314Z,22.73
2023-01-03T22:09:53.575Z,25.65
2023-01-03T22:12:21.183Z,24.93
2023-01-03T22:14:48.875Z,23.65
2023-01-03T22:17:16.847Z,17.00
2023-01-03T22:19:44.591Z,22.17
2023-01-03T22:22:12.125Z,20.27
2023-01-03T22:24:39.957Z,24.50
2023-01-03T22:27:07.728Z,24.27
2023-01-03T22:29:35.174Z,22.73
2023-01-03T22:32:03.126Z,24.67
2023-01-03T22:34:30.475Z,24.38
2023-01-03T22:36:57.974Z,32.23
2023-01-03T22:39:25.694Z,32.40
2023-01-03T22:41:53.259Z,30.90
2023-01-03T22:44:20.683Z,37.95
2023-01-03T22:46:48.565Z,34.28
2023-01-03T22:49:15.964Z,33.40
2023-01-03T22:51:43.445Z,27.40
2023-01-03T22:54:10.850Z,22.90
2023-01-03T22:56:38.375Z,23.00
2023-01-03T22:59:05.823Z,26.30
2023-01-03T23:01:33.798Z,21.10
2023-01-03T23:04:01.835Z,26.13
2023-01-03T23:06:31.275Z,21.27
2023-01-03T23:08:59.170Z,20.40
2023-01-03T23:11:50.916Z,20.55
2023-01-03T23:14:20.924Z,22.93
2023-01-03T23:16:51.088Z,19.80
2023-01-03T23:19:21.246Z,18.55
2023-01-03T23:21:49.711Z,20.35
2023-01-03T23:24:25.885Z,17.92
2023-01-03T23:26:53.969Z,16.70
2023-01-03T23:29:24.708Z,17.23
2023-01-03T23:31:53.161Z,21.05
2023-01-03T23:34:20.616Z,20.30
2023-01-03T23:36:49.524Z,18.67
2023-01-03T23:39:19.754Z,16.57
2023-01-03T23:41:47.580Z,17.95
2023-01-03T23:44:15.132Z,18.25
2023-01-03T23:46:43.206Z,16.52
2023-01-03T23:49:13.569Z,13.75
2023-01-03T23:51:41.180Z,13.50
2023-01-03T23:54:08.841Z,14.05
2023-01-03T23:56:36.753Z,15.80
2023-01-03T23:59:04.417Z,12.02
